sensor_id;sensor_type;location;lat;lon;timestamp;temperature;humidity
13652;DHT22;6899;51.546;6.912;2022-10-03T00:03:55;7.40;99.90
13652;DHT22;6899;51.546;6.912;2022-10-03T00:06:31;7.50;99.90
13652;DHT22;6899;51.546;6.912;2022-10-03T00:09:20;7.40;99.90
13652;DHT22;6899;51.546;6.912;2022-10-03T00:12:06;7.40;99.90
13652;DHT22;6899;51.546;6.912;2022-10-03T00:14:43;7.50;99.90
13652;DHT22;6899;51.546;6.912;2022-10-03T00:17:18;7.40;99.90
13652;DHT22;6899;51.546;6.912;2022-10-03T00:19:55;7.40;99.90
13652;DHT22;6899;51.546;6.912;2022-10-03T00:22:30;7.30;99.90
13652;DHT22;6899;51.546;6.912;2022-10-03T00:25:22;7.40;99.90
13652;DHT22;6899;51.546;6.912;2022-10-03T00:28:06;7.60;99.90
13652;DHT22;6899;51.546;6.912;2022-10-03T00:30:52;7.60;99.90
13652;DHT22;6899;51.546;6.912;2022-10-03T00:33:31;7.60;99.90
13652;DHT22;6899;51.546;6.912;2022-10-03T00:36:07;7.60;99.90
13652;DHT22;6899;51.546;6.912;2022-10-03T00:39:19;7.50;99.90
13652;DHT22;6899;51.546;6.912;2022-10-03T00:45:42;7.50;99.90
13652;DHT22;6899;51.546;6.912;2022-10-03T00:51:44;7.50;99.90
13652;DHT22;6899;51.546;6.912;2022-10-03T00:54:38;7.50;99.90
13652;DHT22;6899;51.546;6.912;2022-10-03T00:57:17;7.60;99.90
13652;DHT22;6899;51.546;6.912;2022-10-03T01:00:02;7.60;99.90
13652;DHT22;6899;51.546;6.912;2022-10-03T01:02:40;7.50;99.90
13652;DHT22;6899;51.546;6.912;2022-10-03T01:05:15;7.50;99.90
13652;DHT22;6899;51.546;6.912;2022-10-03T01:08:17;7.50;99.90
13652;DHT22;6899;51.546;6.912;2022-10-03T01:10:52;7.40;99.90
13652;DHT22;6899;51.546;6.912;2022-10-03T01:13:33;7.40;99.90
13652;DHT22;6899;51.546;6.912;2022-10-03T01:16:09;7.40;99.90
13652;DHT22;6899;51.546;6.912;2022-10-03T01:18:48;7.40;99.90
13652;DHT22;6899;51.546;6.912;2022-10-03T01:21:25;7.40;99.90
13652;DHT22;6899;51.546;6.912;2022-10-03T01:26:57;7.40;99.90
13652;DHT22;6899;51.546;6.912;2022-10-03T01:29:39;7.50;99.90
13652;DHT22;6899;51.546;6.912;2022-10-03T01:32:32;7.60;99.90
13652;DHT22;6899;51.546;6.912;2022-10-03T01:38:00;7.60;99.90
13652;DHT22;6899;51.546;6.912;2022-10-03T01:40:30;7.50;99.90
13652;DHT22;6899;51.546;6.912;2022-10-03T01:43:12;7.50;99.90
13652;DHT22;6899;51.546;6.912;2022-10-03T01:45:47;7.40;99.90
13652;DHT22;6899;51.546;6.912;2022-10-03T01:48:23;7.40;99.90
13652;DHT22;6899;51.546;6.912;2022-10-03T01:50:59;7.40;99.90
13652;DHT22;6899;51.546;6.912;2022-10-03T01:53:34;7.40;99.90
13652;DHT22;6899;51.546;6.912;2022-10-03T01:56:10;7.30;99.90
13652;DHT22;6899;51.546;6.912;2022-10-03T01:58:48;7.40;99.90
13652;DHT22;6899;51.546;6.912;2022-10-03T02:01:27;7.40;99.90
13652;DHT22;6899;51.546;6.912;2022-10-03T02:03:59;7.40;99.90
13652;DHT22;6899;51.546;6.912;2022-10-03T02:06:38;7.40;99.90
13652;DHT22;6899;51.546;6.912;2022-10-03T02:09:18;7.50;99.90
13652;DHT22;6899;51.546;6.912;2022-10-03T02:11:59;7.50;99.90
13652;DHT22;6899;51.546;6.912;2022-10-03T02:14:31;7.50;99.90
13652;DHT22;6899;51.546;6.912;2022-10-03T02:17:05;7.50;99.90
13652;DHT22;6899;51.546;6.912;2022-10-03T02:19:40;7.40;99.90
13652;DHT22;6899;51.546;6.912;2022-10-03T02:22:14;7.40;99.90
13652;DHT22;6899;51.546;6.912;2022-10-03T02:24:46;7.30;99.90
13652;DHT22;6899;51.546;6.912;2022-10-03T02:27:38;7.20;99.90
13652;DHT22;6899;51.546;6.912;2022-10-03T02:30:18;7.20;99.90
13652;DHT22;6899;51.546;6.912;2022-10-03T02:33:12;7.30;99.90
13652;DHT22;6899;51.546;6.912;2022-10-03T02:36:02;7.30;99.90
13652;DHT22;6899;51.546;6.912;2022-10-03T02:39:06;7.30;99.90
13652;DHT22;6899;51.546;6.912;2022-10-03T02:51:18;7.10;99.90
13652;DHT22;6899;51.546;6.912;2022-10-03T02:54:19;7.10;99.90
13652;DHT22;6899;51.546;6.912;2022-10-03T02:57:39;7.20;99.90
13652;DHT22;6899;51.546;6.912;2022-10-03T03:00:12;7.20;99.90
13652;DHT22;6899;51.546;6.912;2022-10-03T03:05:58;7.20;99.90
13652;DHT22;6899;51.546;6.912;2022-10-03T03:08:47;7.20;99.90
13652;DHT22;6899;51.546;6.912;2022-10-03T03:15:07;7.30;99.90
13652;DHT22;6899;51.546;6.912;2022-10-03T03:17:47;7.30;99.90
13652;DHT22;6899;51.546;6.912;2022-10-03T03:20:28;7.30;99.90
13652;DHT22;6899;51.546;6.912;2022-10-03T03:23:15;7.30;99.90
13652;DHT22;6899;51.546;6.912;2022-10-03T03:26:03;7.40;99.90
13652;DHT22;6899;51.546;6.912;2022-10-03T03:28:40;7.30;99.90
13652;DHT22;6899;51.546;6.912;2022-10-03T03:31:11;7.20;99.90
13652;DHT22;6899;51.546;6.912;2022-10-03T03:33:47;7.10;99.90
13652;DHT22;6899;51.546;6.912;2022-10-03T03:36:22;7.00;99.90
13652;DHT22;6899;51.546;6.912;2022-10-03T03:38:57;7.00;99.90
13652;DHT22;6899;51.546;6.912;2022-10-03T03:41:53;7.00;99.90
13652;DHT22;6899;51.546;6.912;2022-10-03T03:47:35;7.00;99.90
13652;DHT22;6899;51.546;6.912;2022-10-03T03:50:24;6.90;99.90
13652;DHT22;6899;51.546;6.912;2022-10-03T03:53:16;6.90;99.90
13652;DHT22;6899;51.546;6.912;2022-10-03T03:56:03;6.90;99.90
13652;DHT22;6899;51.546;6.912;2022-10-03T03:58:37;6.90;99.90
13652;DHT22;6899;51.546;6.912;2022-10-03T04:01:31;6.90;99.90
13652;DHT22;6899;51.546;6.912;2022-10-03T04:04:11;6.90;99.90
13652;DHT22;6899;51.546;6.912;2022-10-03T04:06:52;6.90;99.90
13652;DHT22;6899;51.546;6.912;2022-10-03T04:12:25;7.00;99.90
13652;DHT22;6899;51.546;6.912;2022-10-03T04:15:13;7.00;99.90
13652;DHT22;6899;51.546;6.912;2022-10-03T04:17:51;7.00;99.90
13652;DHT22;6899;51.546;6.912;2022-10-03T04:21:00;7.00;99.90
13652;DHT22;6899;51.546;6.912;2022-10-03T04:23:51;7.00;99.90
13652;DHT22;6899;51.546;6.912;2022-10-03T04:26:33;7.00;99.90
13652;DHT22;6899;51.546;6.912;2022-10-03T04:29:29;7.00;99.90
13652;DHT22;6899;51.546;6.912;2022-10-03T04:32:20;7.00;99.90
13652;DHT22;6899;51.546;6.912;2022-10-03T04:35:07;7.00;99.90
13652;DHT22;6899;51.546;6.912;2022-10-03T04:37:41;7.10;99.90
13652;DHT22;6899;51.546;6.912;2022-10-03T04:40:22;7.20;99.90
13652;DHT22;6899;51.546;6.912;2022-10-03T04:43:00;7.40;99.90
13652;DHT22;6899;51.546;6.912;2022-10-03T04:45:52;7.50;99.90
13652;DHT22;6899;51.546;6.912;2022-10-03T04:48:27;7.60;99.90
13652;DHT22;6899;51.546;6.912;2022-10-03T04:51:04;7.60;99.90
13652;DHT22;6899;51.546;6.912;2022-10-03T04:53:47;7.60;99.90
13652;DHT22;6899;51.546;6.912;2022-10-03T04:56:32;7.50;99.90
13652;DHT22;6899;51.546;6.912;2022-10-03T04:59:10;7.50;99.90
13652;DHT22;6899;51.546;6.912;2022-10-03T05:01:46;7.30;99.90
13652;DHT22;6899;51.546;6.912;2022-10-03T05:04:37;7.30;99.90
13652;DHT22;6899;51.546;6.912;2022-10-03T05:07:15;7.30;99.90
13652;DHT22;6899;51.546;6.912;2022-10-03T05:09:52;7.30;99.90
13652;DHT22;6899;51.546;6.912;2022-10-03T05:12:30;7.30;99.90
13652;DHT22;6899;51.546;6.912;2022-10-03T05:15:14;7.30;99.90
13652;DHT22;6899;51.546;6.912;2022-10-03T05:17:47;7.30;99.90
13652;DHT22;6899;51.546;6.912;2022-10-03T05:20:27;7.30;99.90
13652;DHT22;6899;51.546;6.912;2022-10-03T05:23:05;7.20;99.90
13652;DHT22;6899;51.546;6.912;2022-10-03T05:25:45;7.20;99.90
13652;DHT22;6899;51.546;6.912;2022-10-03T05:28:24;7.20;99.90
13652;DHT22;6899;51.546;6.912;2022-10-03T05:31:02;7.30;99.90
13652;DHT22;6899;51.546;6.912;2022-10-03T05:33:38;7.40;99.90
13652;DHT22;6899;51.546;6.912;2022-10-03T05:36:18;7.60;99.90
13652;DHT22;6899;51.546;6.912;2022-10-03T05:39:24;7.80;99.90
13652;DHT22;6899;51.546;6.912;2022-10-03T05:41:53;8.00;99.90
13652;DHT22;6899;51.546;6.912;2022-10-03T05:44:33;8.10;99.90
13652;DHT22;6899;51.546;6.912;2022-10-03T05:47:19;8.20;99.90
13652;DHT22;6899;51.546;6.912;2022-10-03T05:50:23;8.20;99.90
13652;DHT22;6899;51.546;6.912;2022-10-03T05:53:04;8.20;99.90
13652;DHT22;6899;51.546;6.912;2022-10-03T05:55:50;8.20;99.90
13652;DHT22;6899;51.546;6.912;2022-10-03T05:58:30;8.30;99.90
13652;DHT22;6899;51.546;6.912;2022-10-03T06:01:25;8.40;99.90
13652;DHT22;6899;51.546;6.912;2022-10-03T06:04:07;8.40;99.90
13652;DHT22;6899;51.546;6.912;2022-10-03T06:06:53;8.30;99.90
13652;DHT22;6899;51.546;6.912;2022-10-03T06:10:02;8.40;99.90
13652;DHT22;6899;51.546;6.912;2022-10-03T06:12:37;8.40;99.90
13652;DHT22;6899;51.546;6.912;2022-10-03T06:15:23;8.50;99.90
13652;DHT22;6899;51.546;6.912;2022-10-03T06:18:00;8.60;99.90
13652;DHT22;6899;51.546;6.912;2022-10-03T06:20:52;8.70;99.90
13652;DHT22;6899;51.546;6.912;2022-10-03T06:30:04;8.50;99.90
13652;DHT22;6899;51.546;6.912;2022-10-03T06:33:12;8.30;99.90
13652;DHT22;6899;51.546;6.912;2022-10-03T06:42:36;8.20;99.90
13652;DHT22;6899;51.546;6.912;2022-10-03T06:45:43;8.70;99.90
13652;DHT22;6899;51.546;6.912;2022-10-03T06:48:47;10.20;99.90
13652;DHT22;6899;51.546;6.912;2022-10-03T06:51:44;10.90;99.90
13652;DHT22;6899;51.546;6.912;2022-10-03T06:57:36;10.70;99.90
13652;DHT22;6899;51.546;6.912;2022-10-03T07:00:12;10.70;99.90
13652;DHT22;6899;51.546;6.912;2022-10-03T07:03:05;10.70;99.90
13652;DHT22;6899;51.546;6.912;2022-10-03T07:12:33;10.90;99.90
13652;DHT22;6899;51.546;6.912;2022-10-03T07:15:37;11.10;99.90
13652;DHT22;6899;51.546;6.912;2022-10-03T07:25:09;11.90;99.90
13652;DHT22;6899;51.546;6.912;2022-10-03T07:27:57;12.40;99.90
13652;DHT22;6899;51.546;6.912;2022-10-03T07:30:44;12.50;99.90
13652;DHT22;6899;51.546;6.912;2022-10-03T07:33:36;12.30;99.90
13652;DHT22;6899;51.546;6.912;2022-10-03T07:36:24;12.10;99.90
13652;DHT22;6899;51.546;6.912;2022-10-03T07:45:30;12.50;99.90
13652;DHT22;6899;51.546;6.912;2022-10-03T07:48:12;12.50;99.90
13652;DHT22;6899;51.546;6.912;2022-10-03T07:50:55;12.40;99.90
13652;DHT22;6899;51.546;6.912;2022-10-03T08:00:23;11.80;99.90
13652;DHT22;6899;51.546;6.912;2022-10-03T08:03:19;12.30;99.90
13652;DHT22;6899;51.546;6.912;2022-10-03T08:06:17;13.00;99.90
13652;DHT22;6899;51.546;6.912;2022-10-03T08:09:12;13.10;99.90
13652;DHT22;6899;51.546;6.912;2022-10-03T08:14:55;13.70;99.90
13652;DHT22;6899;51.546;6.912;2022-10-03T08:20:50;13.60;99.90
13652;DHT22;6899;51.546;6.912;2022-10-03T08:23:56;13.70;99.90
13652;DHT22;6899;51.546;6.912;2022-10-03T08:26:42;13.90;99.90
13652;DHT22;6899;51.546;6.912;2022-10-03T08:29:36;14.30;99.90
13652;DHT22;6899;51.546;6.912;2022-10-03T08:35:33;13.90;99.90
13652;DHT22;6899;51.546;6.912;2022-10-03T08:38:41;13.60;99.90
13652;DHT22;6899;51.546;6.912;2022-10-03T08:44:56;13.80;99.90
13652;DHT22;6899;51.546;6.912;2022-10-03T08:54:08;14.80;99.90
13652;DHT22;6899;51.546;6.912;2022-10-03T08:56:49;14.90;99.90
13652;DHT22;6899;51.546;6.912;2022-10-03T09:03:17;15.40;99.90
13652;DHT22;6899;51.546;6.912;2022-10-03T09:06:33;15.70;99.90
13652;DHT22;6899;51.546;6.912;2022-10-03T09:09:19;16.20;99.90
13652;DHT22;6899;51.546;6.912;2022-10-03T09:14:51;16.10;99.90
13652;DHT22;6899;51.546;6.912;2022-10-03T09:17:53;16.20;99.90
13652;DHT22;6899;51.546;6.912;2022-10-03T09:20:54;16.60;99.90
13652;DHT22;6899;51.546;6.912;2022-10-03T09:23:49;17.10;99.90
13652;DHT22;6899;51.546;6.912;2022-10-03T09:29:32;17.20;99.90
13652;DHT22;6899;51.546;6.912;2022-10-03T09:32:28;16.90;99.90
13652;DHT22;6899;51.546;6.912;2022-10-03T09:35:30;16.80;99.90
13652;DHT22;6899;51.546;6.912;2022-10-03T09:38:32;17.10;99.90
13652;DHT22;6899;51.546;6.912;2022-10-03T09:50:51;17.50;99.90
13652;DHT22;6899;51.546;6.912;2022-10-03T09:53:36;17.70;99.90
13652;DHT22;6899;51.546;6.912;2022-10-03T09:59:17;18.00;99.90
13652;DHT22;6899;51.546;6.912;2022-10-03T10:01:53;17.80;99.90
13652;DHT22;6899;51.546;6.912;2022-10-03T10:04:39;17.80;99.90
13652;DHT22;6899;51.546;6.912;2022-10-03T10:07:39;17.70;99.90
13652;DHT22;6899;51.546;6.912;2022-10-03T10:16:44;17.90;99.90
13652;DHT22;6899;51.546;6.912;2022-10-03T10:19:28;18.20;99.90
13652;DHT22;6899;51.546;6.912;2022-10-03T10:25:44;18.70;99.90
13652;DHT22;6899;51.546;6.912;2022-10-03T10:31:41;19.70;99.90
13652;DHT22;6899;51.546;6.912;2022-10-03T10:40:49;20.90;99.80
13652;DHT22;6899;51.546;6.912;2022-10-03T10:47:09;19.90;98.10
13652;DHT22;6899;51.546;6.912;2022-10-03T10:50:23;19.40;99.90
13652;DHT22;6899;51.546;6.912;2022-10-03T10:56:41;18.70;99.90
13652;DHT22;6899;51.546;6.912;2022-10-03T11:00:08;19.10;99.90
13652;DHT22;6899;51.546;6.912;2022-10-03T11:03:35;18.90;99.90
13652;DHT22;6899;51.546;6.912;2022-10-03T11:06:59;18.90;99.90
13652;DHT22;6899;51.546;6.912;2022-10-03T11:09:51;19.70;99.90
13652;DHT22;6899;51.546;6.912;2022-10-03T11:13:09;19.60;99.40
13652;DHT22;6899;51.546;6.912;2022-10-03T11:16:27;19.40;99.90
13652;DHT22;6899;51.546;6.912;2022-10-03T11:32:18;20.50;99.90
13652;DHT22;6899;51.546;6.912;2022-10-03T11:35:28;21.10;95.80
13652;DHT22;6899;51.546;6.912;2022-10-03T11:38:06;20.70;96.30
13652;DHT22;6899;51.546;6.912;2022-10-03T11:40:48;20.40;97.50
13652;DHT22;6899;51.546;6.912;2022-10-03T11:46:55;20.80;99.90
13652;DHT22;6899;51.546;6.912;2022-10-03T11:49:58;21.40;98.40
13652;DHT22;6899;51.546;6.912;2022-10-03T11:52:30;21.80;94.20
13652;DHT22;6899;51.546;6.912;2022-10-03T11:55:08;22.10;93.80
13652;DHT22;6899;51.546;6.912;2022-10-03T11:57:47;21.40;82.80
13652;DHT22;6899;51.546;6.912;2022-10-03T12:00:19;21.00;87.20
13652;DHT22;6899;51.546;6.912;2022-10-03T12:03:15;21.20;92.70
13652;DHT22;6899;51.546;6.912;2022-10-03T12:05:54;20.80;84.90
13652;DHT22;6899;51.546;6.912;2022-10-03T12:08:39;20.70;92.50
13652;DHT22;6899;51.546;6.912;2022-10-03T12:11:25;20.60;93.90
13652;DHT22;6899;51.546;6.912;2022-10-03T12:14:11;20.40;94.80
13652;DHT22;6899;51.546;6.912;2022-10-03T12:16:54;20.60;95.50
13652;DHT22;6899;51.546;6.912;2022-10-03T12:19:28;20.70;92.40
13652;DHT22;6899;51.546;6.912;2022-10-03T12:22:03;20.70;90.90
13652;DHT22;6899;51.546;6.912;2022-10-03T12:24:33;20.50;91.20
13652;DHT22;6899;51.546;6.912;2022-10-03T12:27:09;21.00;90.30
13652;DHT22;6899;51.546;6.912;2022-10-03T12:29:55;20.70;89.70
13652;DHT22;6899;51.546;6.912;2022-10-03T12:32:30;20.80;91.10
13652;DHT22;6899;51.546;6.912;2022-10-03T12:35:14;20.50;90.00
13652;DHT22;6899;51.546;6.912;2022-10-03T12:38:00;19.50;90.60
13652;DHT22;6899;51.546;6.912;2022-10-03T12:40:36;19.80;95.70
13652;DHT22;6899;51.546;6.912;2022-10-03T12:43:15;20.40;92.20
13652;DHT22;6899;51.546;6.912;2022-10-03T12:45:50;20.30;90.30
13652;DHT22;6899;51.546;6.912;2022-10-03T12:48:39;20.20;92.10
13652;DHT22;6899;51.546;6.912;2022-10-03T12:51:20;20.70;95.20
13652;DHT22;6899;51.546;6.912;2022-10-03T12:53:56;21.20;85.30
13652;DHT22;6899;51.546;6.912;2022-10-03T12:56:33;20.90;83.50
13652;DHT22;6899;51.546;6.912;2022-10-03T12:59:14;20.80;84.90
13652;DHT22;6899;51.546;6.912;2022-10-03T13:02:10;20.90;83.60
13652;DHT22;6899;51.546;6.912;2022-10-03T13:04:54;20.40;84.40
13652;DHT22;6899;51.546;6.912;2022-10-03T13:07:31;20.10;90.20
13652;DHT22;6899;51.546;6.912;2022-10-03T13:10:13;19.90;90.90
13652;DHT22;6899;51.546;6.912;2022-10-03T13:12:46;20.00;93.10
13652;DHT22;6899;51.546;6.912;2022-10-03T13:15:42;19.90;90.80
13652;DHT22;6899;51.546;6.912;2022-10-03T13:18:31;19.90;91.00
13652;DHT22;6899;51.546;6.912;2022-10-03T13:21:04;20.00;90.70
13652;DHT22;6899;51.546;6.912;2022-10-03T13:23:41;19.70;93.60
13652;DHT22;6899;51.546;6.912;2022-10-03T13:26:15;19.50;93.40
13652;DHT22;6899;51.546;6.912;2022-10-03T13:29:04;19.40;92.20
13652;DHT22;6899;51.546;6.912;2022-10-03T13:31:47;19.50;94.50
13652;DHT22;6899;51.546;6.912;2022-10-03T13:34:23;19.60;97.50
13652;DHT22;6899;51.546;6.912;2022-10-03T13:36:55;19.90;94.50
13652;DHT22;6899;51.546;6.912;2022-10-03T13:39:26;20.60;93.40
13652;DHT22;6899;51.546;6.912;2022-10-03T13:42:07;20.90;94.30
13652;DHT22;6899;51.546;6.912;2022-10-03T13:44:38;21.10;92.50
13652;DHT22;6899;51.546;6.912;2022-10-03T13:47:20;21.40;91.00
13652;DHT22;6899;51.546;6.912;2022-10-03T13:49:53;21.30;90.50
13652;DHT22;6899;51.546;6.912;2022-10-03T13:52:27;21.10;90.20
13652;DHT22;6899;51.546;6.912;2022-10-03T13:55:13;20.80;88.10
13652;DHT22;6899;51.546;6.912;2022-10-03T13:57:51;20.60;90.50
13652;DHT22;6899;51.546;6.912;2022-10-03T14:00:22;20.20;91.50
13652;DHT22;6899;51.546;6.912;2022-10-03T14:03:09;20.10;94.40
13652;DHT22;6899;51.546;6.912;2022-10-03T14:09:11;19.70;99.90
13652;DHT22;6899;51.546;6.912;2022-10-03T14:11:50;19.70;95.80
13652;DHT22;6899;51.546;6.912;2022-10-03T14:14:39;19.50;95.10
13652;DHT22;6899;51.546;6.912;2022-10-03T14:17:13;19.30;99.60
13652;DHT22;6899;51.546;6.912;2022-10-03T14:19:55;19.10;99.90
13652;DHT22;6899;51.546;6.912;2022-10-03T14:22:37;18.80;99.90
13652;DHT22;6899;51.546;6.912;2022-10-03T14:25:19;18.60;99.90
13652;DHT22;6899;51.546;6.912;2022-10-03T14:27:50;18.30;99.90
13652;DHT22;6899;51.546;6.912;2022-10-03T14:30:19;18.20;99.90
13652;DHT22;6899;51.546;6.912;2022-10-03T14:33:00;18.00;99.90
13652;DHT22;6899;51.546;6.912;2022-10-03T14:35:38;18.00;99.90
13652;DHT22;6899;51.546;6.912;2022-10-03T14:41:27;17.80;99.90
13652;DHT22;6899;51.546;6.912;2022-10-03T14:43:57;17.80;99.90
13652;DHT22;6899;51.546;6.912;2022-10-03T14:46:28;17.80;99.90
13652;DHT22;6899;51.546;6.912;2022-10-03T14:49:02;17.90;99.90
13652;DHT22;6899;51.546;6.912;2022-10-03T14:51:37;18.00;99.90
13652;DHT22;6899;51.546;6.912;2022-10-03T14:54:07;18.10;99.90
13652;DHT22;6899;51.546;6.912;2022-10-03T14:56:46;18.20;99.90
13652;DHT22;6899;51.546;6.912;2022-10-03T14:59:20;18.10;99.90
13652;DHT22;6899;51.546;6.912;2022-10-03T15:01:49;18.10;99.90
13652;DHT22;6899;51.546;6.912;2022-10-03T15:04:27;18.10;99.90
13652;DHT22;6899;51.546;6.912;2022-10-03T15:06:57;18.00;99.90
13652;DHT22;6899;51.546;6.912;2022-10-03T15:09:41;17.90;99.90
13652;DHT22;6899;51.546;6.912;2022-10-03T15:12:14;17.80;99.90
13652;DHT22;6899;51.546;6.912;2022-10-03T15:14:44;17.70;99.90
13652;DHT22;6899;51.546;6.912;2022-10-03T15:17:18;17.60;99.90
13652;DHT22;6899;51.546;6.912;2022-10-03T15:19:49;17.50;99.90
13652;DHT22;6899;51.546;6.912;2022-10-03T15:22:27;17.50;99.90
13652;DHT22;6899;51.546;6.912;2022-10-03T15:25:06;17.50;99.90
13652;DHT22;6899;51.546;6.912;2022-10-03T15:27:41;17.40;99.90
13652;DHT22;6899;51.546;6.912;2022-10-03T15:30:19;17.30;99.90
13652;DHT22;6899;51.546;6.912;2022-10-03T15:32:47;17.20;99.90
13652;DHT22;6899;51.546;6.912;2022-10-03T15:35:17;17.00;99.90
13652;DHT22;6899;51.546;6.912;2022-10-03T15:37:45;16.90;99.90
13652;DHT22;6899;51.546;6.912;2022-10-03T15:40:20;16.80;99.90
13652;DHT22;6899;51.546;6.912;2022-10-03T15:42:59;16.70;99.90
13652;DHT22;6899;51.546;6.912;2022-10-03T15:45:27;16.50;99.90
13652;DHT22;6899;51.546;6.912;2022-10-03T15:48:00;16.40;99.90
13652;DHT22;6899;51.546;6.912;2022-10-03T15:50:30;16.40;99.90
13652;DHT22;6899;51.546;6.912;2022-10-03T15:53:02;16.30;99.90
13652;DHT22;6899;51.546;6.912;2022-10-03T15:55:35;16.30;99.90
13652;DHT22;6899;51.546;6.912;2022-10-03T15:58:14;16.30;99.90
13652;DHT22;6899;51.546;6.912;2022-10-03T16:00:46;16.20;99.90
13652;DHT22;6899;51.546;6.912;2022-10-03T16:03:16;16.20;99.90
13652;DHT22;6899;51.546;6.912;2022-10-03T16:05:52;16.10;99.90
13652;DHT22;6899;51.546;6.912;2022-10-03T16:08:25;16.10;99.90
13652;DHT22;6899;51.546;6.912;2022-10-03T16:11:01;16.10;99.90
13652;DHT22;6899;51.546;6.912;2022-10-03T16:13:35;16.00;99.90
13652;DHT22;6899;51.546;6.912;2022-10-03T16:16:11;15.90;99.90
13652;DHT22;6899;51.546;6.912;2022-10-03T16:18:55;15.70;99.90
13652;DHT22;6899;51.546;6.912;2022-10-03T16:21:45;15.50;99.90
13652;DHT22;6899;51.546;6.912;2022-10-03T16:24:21;15.30;99.90
13652;DHT22;6899;51.546;6.912;2022-10-03T16:27:06;15.00;99.90
13652;DHT22;6899;51.546;6.912;2022-10-03T16:29:39;14.80;99.90
13652;DHT22;6899;51.546;6.912;2022-10-03T16:32:15;14.60;99.90
13652;DHT22;6899;51.546;6.912;2022-10-03T16:34:44;14.40;99.90
13652;DHT22;6899;51.546;6.912;2022-10-03T16:37:20;14.10;99.90
13652;DHT22;6899;51.546;6.912;2022-10-03T16:39:54;14.00;99.90
13652;DHT22;6899;51.546;6.912;2022-10-03T16:42:25;13.80;99.90
13652;DHT22;6899;51.546;6.912;2022-10-03T16:44:56;13.60;99.90
13652;DHT22;6899;51.546;6.912;2022-10-03T16:47:34;13.40;99.90
13652;DHT22;6899;51.546;6.912;2022-10-03T16:50:02;13.10;99.90
13652;DHT22;6899;51.546;6.912;2022-10-03T16:52:49;13.00;99.90
13652;DHT22;6899;51.546;6.912;2022-10-03T16:55:21;12.90;99.90
13652;DHT22;6899;51.546;6.912;2022-10-03T16:57:54;12.80;99.90
13652;DHT22;6899;51.546;6.912;2022-10-03T17:00:27;12.60;99.90
13652;DHT22;6899;51.546;6.912;2022-10-03T17:02:58;12.50;99.90
13652;DHT22;6899;51.546;6.912;2022-10-03T17:05:25;12.30;99.90
13652;DHT22;6899;51.546;6.912;2022-10-03T17:07:57;12.20;99.90
13652;DHT22;6899;51.546;6.912;2022-10-03T17:10:37;12.00;99.90
13652;DHT22;6899;51.546;6.912;2022-10-03T17:13:13;11.80;99.90
13652;DHT22;6899;51.546;6.912;2022-10-03T17:15:49;11.70;99.90
13652;DHT22;6899;51.546;6.912;2022-10-03T17:18:24;11.50;99.90
13652;DHT22;6899;51.546;6.912;2022-10-03T17:20:54;11.50;99.90
13652;DHT22;6899;51.546;6.912;2022-10-03T17:23:32;11.50;99.90
13652;DHT22;6899;51.546;6.912;2022-10-03T17:26:07;11.30;99.90
13652;DHT22;6899;51.546;6.912;2022-10-03T17:28:38;11.20;99.90
13652;DHT22;6899;51.546;6.912;2022-10-03T17:31:27;11.10;99.90
13652;DHT22;6899;51.546;6.912;2022-10-03T17:34:06;11.00;99.90
13652;DHT22;6899;51.546;6.912;2022-10-03T17:36:57;11.00;99.90
13652;DHT22;6899;51.546;6.912;2022-10-03T17:39:40;10.90;99.90
13652;DHT22;6899;51.546;6.912;2022-10-03T17:42:27;10.80;99.90
13652;DHT22;6899;51.546;6.912;2022-10-03T17:45:10;10.80;99.90
13652;DHT22;6899;51.546;6.912;2022-10-03T17:47:48;10.70;99.90
13652;DHT22;6899;51.546;6.912;2022-10-03T17:50:27;10.60;99.90
13652;DHT22;6899;51.546;6.912;2022-10-03T17:52:56;10.60;99.90
13652;DHT22;6899;51.546;6.912;2022-10-03T17:55:28;10.60;99.90
13652;DHT22;6899;51.546;6.912;2022-10-03T17:57:58;10.50;99.90
13652;DHT22;6899;51.546;6.912;2022-10-03T18:00:28;10.40;99.90
13652;DHT22;6899;51.546;6.912;2022-10-03T18:03:01;10.40;99.90
13652;DHT22;6899;51.546;6.912;2022-10-03T18:05:32;10.40;99.90
13652;DHT22;6899;51.546;6.912;2022-10-03T18:08:03;10.40;99.90
13652;DHT22;6899;51.546;6.912;2022-10-03T18:10:35;10.40;99.90
13652;DHT22;6899;51.546;6.912;2022-10-03T18:13:08;10.40;99.90
13652;DHT22;6899;51.546;6.912;2022-10-03T18:16:08;10.30;99.90
13652;DHT22;6899;51.546;6.912;2022-10-03T18:19:08;10.20;99.90
13652;DHT22;6899;51.546;6.912;2022-10-03T18:21:54;10.20;99.90
13652;DHT22;6899;51.546;6.912;2022-10-03T18:24:42;10.20;99.90
13652;DHT22;6899;51.546;6.912;2022-10-03T18:30:24;10.20;99.90
13652;DHT22;6899;51.546;6.912;2022-10-03T18:33:03;10.20;99.90
13652;DHT22;6899;51.546;6.912;2022-10-03T18:35:35;10.10;99.90
13652;DHT22;6899;51.546;6.912;2022-10-03T18:38:10;10.10;99.90
13652;DHT22;6899;51.546;6.912;2022-10-03T18:40:41;10.10;99.90
13652;DHT22;6899;51.546;6.912;2022-10-03T18:43:25;10.00;99.90
13652;DHT22;6899;51.546;6.912;2022-10-03T18:45:55;10.00;99.90
13652;DHT22;6899;51.546;6.912;2022-10-03T18:48:31;10.00;99.90
13652;DHT22;6899;51.546;6.912;2022-10-03T18:51:09;10.00;99.90
13652;DHT22;6899;51.546;6.912;2022-10-03T18:53:41;10.00;99.90
13652;DHT22;6899;51.546;6.912;2022-10-03T18:56:11;10.00;99.90
13652;DHT22;6899;51.546;6.912;2022-10-03T18:58:42;10.00;99.90
13652;DHT22;6899;51.546;6.912;2022-10-03T19:01:15;10.00;99.90
13652;DHT22;6899;51.546;6.912;2022-10-03T19:03:45;10.10;99.90
13652;DHT22;6899;51.546;6.912;2022-10-03T19:06:20;10.00;99.90
13652;DHT22;6899;51.546;6.912;2022-10-03T19:08:49;10.10;99.90
13652;DHT22;6899;51.546;6.912;2022-10-03T19:11:21;10.10;99.90
13652;DHT22;6899;51.546;6.912;2022-10-03T19:13:57;10.10;99.90
13652;DHT22;6899;51.546;6.912;2022-10-03T19:16:39;10.10;99.90
13652;DHT22;6899;51.546;6.912;2022-10-03T19:19:15;10.10;99.90
13652;DHT22;6899;51.546;6.912;2022-10-03T19:21:45;10.10;99.90
13652;DHT22;6899;51.546;6.912;2022-10-03T19:24:18;10.10;99.90
13652;DHT22;6899;51.546;6.912;2022-10-03T19:26:48;10.10;99.90
13652;DHT22;6899;51.546;6.912;2022-10-03T19:29:21;10.10;99.90
13652;DHT22;6899;51.546;6.912;2022-10-03T19:32:00;10.10;99.90
13652;DHT22;6899;51.546;6.912;2022-10-03T19:34:34;10.00;99.90
13652;DHT22;6899;51.546;6.912;2022-10-03T19:37:15;10.00;99.90
13652;DHT22;6899;51.546;6.912;2022-10-03T19:39:42;9.90;99.90
13652;DHT22;6899;51.546;6.912;2022-10-03T19:42:21;9.90;99.90
13652;DHT22;6899;51.546;6.912;2022-10-03T19:44:54;9.90;99.90
13652;DHT22;6899;51.546;6.912;2022-10-03T19:47:26;9.80;99.90
13652;DHT22;6899;51.546;6.912;2022-10-03T19:50:02;9.80;99.90
13652;DHT22;6899;51.546;6.912;2022-10-03T19:52:32;9.70;99.90
13652;DHT22;6899;51.546;6.912;2022-10-03T19:55:03;9.60;99.90
13652;DHT22;6899;51.546;6.912;2022-10-03T19:57:38;9.60;99.90
13652;DHT22;6899;51.546;6.912;2022-10-03T20:00:19;9.50;99.90
13652;DHT22;6899;51.546;6.912;2022-10-03T20:02:52;9.40;99.90
13652;DHT22;6899;51.546;6.912;2022-10-03T20:05:23;9.30;99.90
13652;DHT22;6899;51.546;6.912;2022-10-03T20:07:58;9.20;99.90
13652;DHT22;6899;51.546;6.912;2022-10-03T20:10:39;9.20;99.90
13652;DHT22;6899;51.546;6.912;2022-10-03T20:13:08;9.20;99.90
13652;DHT22;6899;51.546;6.912;2022-10-03T20:15:40;9.20;99.90
13652;DHT22;6899;51.546;6.912;2022-10-03T20:18:13;9.10;99.90